createdAt,value
2023-04-10T00:00:38.381Z,8.60
2023-04-10T00:05:33.335Z,8.90
2023-04-10T00:10:30.492Z,8.10
2023-04-10T00:12:57.722Z,8.40
2023-04-10T00:17:55.241Z,8.10
2023-04-10T00:20:23.131Z,8.30
2023-04-10T00:22:50.886Z,7.90
2023-04-10T00:27:45.296Z,8.20
2023-04-10T00:30:12.309Z,8.40
2023-04-10T00:32:39.467Z,8.50
2023-04-10T00:35:08.491Z,8.00
2023-04-10T00:37:35.820Z,8.60
2023-04-10T00:40:03.092Z,8.00
2023-04-10T00:47:25.701Z,7.80
2023-04-10T00:52:20.756Z,8.10
2023-04-10T00:54:47.748Z,8.10
2023-04-10T01:02:11.394Z,7.30
2023-04-10T01:04:38.699Z,7.70
2023-04-10T01:07:19.377Z,7.50
2023-04-10T01:09:52.446Z,7.70
2023-04-10T01:12:54.765Z,7.70
2023-04-10T01:15:25.632Z,7.40
2023-04-10T01:18:16.149Z,7.50
2023-04-10T01:20:43.568Z,7.70
2023-04-10T01:23:22.287Z,6.90
2023-04-10T01:25:49.822Z,7.40
2023-04-10T01:28:33.782Z,7.30
2023-04-10T01:31:02.781Z,7.40
2023-04-10T01:33:47.691Z,7.50
2023-04-10T01:36:31.178Z,7.30
2023-04-10T01:38:58.698Z,7.30
2023-04-10T01:41:26.899Z,6.90
2023-04-10T01:43:54.474Z,7.10
2023-04-10T01:46:23.994Z,7.30
2023-04-10T01:48:53.060Z,7.20
2023-04-10T01:51:20.669Z,7.10
2023-04-10T01:53:48.650Z,6.90
2023-04-10T01:56:16.760Z,7.10
2023-04-10T02:06:36.132Z,7.20
2023-04-10T02:09:15.440Z,7.40
2023-04-10T02:11:49.440Z,7.30
2023-04-10T02:14:19.760Z,7.00
2023-04-10T02:16:47.110Z,7.20
2023-04-10T02:19:14.720Z,7.00
2023-04-10T02:21:42.265Z,7.00
2023-04-10T02:26:50.045Z,7.00
2023-04-10T02:29:17.760Z,6.90
2023-04-10T02:31:45.859Z,6.90
2023-04-10T02:34:13.101Z,7.10
2023-04-10T02:36:40.742Z,7.00
2023-04-10T02:39:08.334Z,6.60
2023-04-10T02:41:35.179Z,7.10
2023-04-10T02:46:29.363Z,6.60
2023-04-10T02:48:56.256Z,7.20
2023-04-10T02:51:23.151Z,6.80
2023-04-10T02:58:47.702Z,7.20
2023-04-10T03:01:14.693Z,6.90
2023-04-10T03:06:10.726Z,6.80
2023-04-10T03:11:05.046Z,6.90
2023-04-10T03:15:59.361Z,6.60
2023-04-10T03:18:26.305Z,6.60
2023-04-10T03:20:53.250Z,6.30
2023-04-10T03:23:20.680Z,6.90
2023-04-10T03:25:53.882Z,7.00
2023-04-10T03:28:22.021Z,6.70
2023-04-10T03:30:50.331Z,7.10
2023-04-10T03:35:46.617Z,6.70
2023-04-10T03:40:41.395Z,6.90
2023-04-10T03:48:02.942Z,6.90
2023-04-10T04:00:20.688Z,6.70
2023-04-10T04:02:51.017Z,6.70
2023-04-10T04:05:18.377Z,6.60
2023-04-10T04:07:45.200Z,6.60
2023-04-10T04:10:12.500Z,6.30
2023-04-10T04:12:39.309Z,6.90
2023-04-10T04:15:06.693Z,6.50
2023-04-10T04:22:28.334Z,7.00
2023-04-10T04:24:55.412Z,6.90
2023-04-10T04:34:44.723Z,6.60
2023-04-10T04:42:07.708Z,6.90
2023-04-10T04:44:34.610Z,7.00
2023-04-10T04:47:02.084Z,6.40
2023-04-10T04:51:56.178Z,7.30
2023-04-10T04:59:18.181Z,6.70
2023-04-10T05:01:45.070Z,7.10
2023-04-10T05:09:06.641Z,6.50
2023-04-10T05:14:00.702Z,6.80
2023-04-10T05:18:55.679Z,7.00
2023-04-10T05:23:50.001Z,7.20
2023-04-10T05:31:11.344Z,6.80
2023-04-10T05:38:32.961Z,7.60
2023-04-10T05:50:52.434Z,7.90
2023-04-10T05:53:20.732Z,7.70
2023-04-10T05:55:54.601Z,8.00
2023-04-10T05:58:21.864Z,8.30
2023-04-10T06:08:11.141Z,8.60
2023-04-10T06:10:38.117Z,8.90
2023-04-10T06:13:04.987Z,8.90
2023-04-10T06:22:54.227Z,9.80
2023-04-10T06:27:49.827Z,10.40
2023-04-10T06:32:44.035Z,10.50
2023-04-10T06:35:11.452Z,10.30
2023-04-10T06:40:10.203Z,10.90
2023-04-10T06:42:37.972Z,11.30
2023-04-10T07:04:44.274Z,12.70
2023-04-10T07:09:40.567Z,12.30
2023-04-10T07:14:35.698Z,11.90
2023-04-10T07:17:03.026Z,12.40
2023-04-10T07:19:30.506Z,13.80
2023-04-10T07:21:57.767Z,14.50
2023-04-10T07:26:52.049Z,14.20
2023-04-10T07:31:46.442Z,15.00
2023-04-10T07:34:13.375Z,14.40
2023-04-10T07:41:35.952Z,14.70
2023-04-10T07:44:02.779Z,15.40
2023-04-10T07:48:56.974Z,14.60
2023-04-10T07:51:24.089Z,15.00
2023-04-10T07:56:19.998Z,15.00
2023-04-10T07:58:47.442Z,15.30
2023-04-10T08:01:14.597Z,15.10
2023-04-10T08:03:43.987Z,15.10
2023-04-10T08:06:11.712Z,15.70
2023-04-10T08:08:42.830Z,16.30
2023-04-10T08:11:30.859Z,16.40
2023-04-10T08:14:02.814Z,16.40
2023-04-10T08:16:34.917Z,16.10
2023-04-10T08:19:02.688Z,15.70
2023-04-10T08:21:32.063Z,15.80
2023-04-10T08:24:01.262Z,15.50
2023-04-10T08:26:28.929Z,16.00
2023-04-10T08:28:57.729Z,16.60
2023-04-10T08:31:28.044Z,17.10
2023-04-10T08:33:55.933Z,17.20
2023-04-10T08:41:18.983Z,16.90
2023-04-10T08:43:46.590Z,18.30
2023-04-10T08:46:14.983Z,18.50
2023-04-10T08:48:58.918Z,19.10
2023-04-10T08:51:32.385Z,18.20
2023-04-10T08:54:08.219Z,17.90
2023-04-10T08:56:37.800Z,18.40
2023-04-10T08:59:05.448Z,18.70
2023-04-10T09:01:32.389Z,19.10
2023-04-10T09:06:27.639Z,19.40
2023-04-10T09:11:22.018Z,19.60
2023-04-10T09:13:48.918Z,20.10
2023-04-10T09:16:15.955Z,19.40
2023-04-10T09:18:46.401Z,19.60
2023-04-10T09:21:21.271Z,18.50
2023-04-10T09:23:49.064Z,18.70
2023-04-10T09:26:29.982Z,18.50
2023-04-10T09:29:02.156Z,18.40
2023-04-10T09:31:31.110Z,18.30
2023-04-10T09:34:27.978Z,18.10
2023-04-10T09:36:56.972Z,18.70
2023-04-10T09:39:34.824Z,19.50
2023-04-10T09:44:37.835Z,19.70
2023-04-10T09:47:13.868Z,20.30
2023-04-10T09:49:57.294Z,20.60
2023-04-10T09:52:35.334Z,21.40
2023-04-10T09:55:07.736Z,21.30
2023-04-10T09:57:36.166Z,20.80
2023-04-10T10:00:09.776Z,20.70
2023-04-10T10:02:39.197Z,21.40
2023-04-10T10:05:07.456Z,21.70
2023-04-10T10:07:35.911Z,22.00
2023-04-10T10:10:03.732Z,23.20
2023-04-10T10:12:49.783Z,23.40
2023-04-10T10:15:36.585Z,22.90
2023-04-10T10:18:24.567Z,23.10
2023-04-10T10:23:19.979Z,24.50
2023-04-10T10:25:48.916Z,24.20
2023-04-10T10:28:18.101Z,23.90
2023-04-10T10:30:45.375Z,23.10
2023-04-10T10:33:14.760Z,23.80
2023-04-10T10:35:42.274Z,24.20
2023-04-10T10:38:10.219Z,24.60
2023-04-10T10:40:55.238Z,23.70
2023-04-10T10:43:46.925Z,24.90
2023-04-10T10:46:24.657Z,26.00
2023-04-10T10:48:59.056Z,25.70
2023-04-10T10:51:44.379Z,25.50
2023-04-10T10:54:34.775Z,24.50
2023-04-10T10:57:03.511Z,25.30
2023-04-10T10:59:48.399Z,26.60
2023-04-10T11:02:19.766Z,25.20
2023-04-10T11:04:49.909Z,25.20
2023-04-10T11:07:17.569Z,25.80
2023-04-10T11:14:42.550Z,27.30
2023-04-10T11:17:10.478Z,24.40
2023-04-10T11:19:59.929Z,26.00
2023-04-10T11:25:02.664Z,24.80
2023-04-10T11:27:44.915Z,27.30
2023-04-10T11:30:35.386Z,25.50
2023-04-10T11:33:04.078Z,25.50
2023-04-10T11:35:32.014Z,25.60
2023-04-10T11:38:18.407Z,24.80
2023-04-10T11:40:59.851Z,25.30
2023-04-10T11:43:27.095Z,25.00
2023-04-10T11:46:20.243Z,24.60
2023-04-10T11:51:14.960Z,23.10
2023-04-10T11:56:21.864Z,24.80
2023-04-10T11:58:52.961Z,24.00
2023-04-10T12:01:23.428Z,24.30
2023-04-10T12:03:50.838Z,23.30
2023-04-10T12:08:49.440Z,24.40
2023-04-10T12:11:20.496Z,25.40
2023-04-10T12:13:48.301Z,24.90
2023-04-10T12:16:15.661Z,25.40
2023-04-10T12:23:41.350Z,26.00
2023-04-10T12:26:13.861Z,25.30
2023-04-10T12:28:42.390Z,25.40
2023-04-10T12:36:04.559Z,22.30
2023-04-10T12:38:45.106Z,22.10
2023-04-10T12:41:12.410Z,21.40
2023-04-10T12:43:41.568Z,21.60
2023-04-10T12:46:10.358Z,21.90
2023-04-10T12:48:37.343Z,21.90
2023-04-10T12:51:04.426Z,21.30
2023-04-10T12:53:31.790Z,19.50
2023-04-10T12:56:03.635Z,18.90
2023-04-10T12:58:31.704Z,18.20
2023-04-10T13:01:04.986Z,17.60
2023-04-10T13:03:34.150Z,17.70
2023-04-10T13:06:01.232Z,16.50
2023-04-10T13:15:53.042Z,15.90
2023-04-10T13:23:14.450Z,18.10
2023-04-10T13:25:42.918Z,19.20
2023-04-10T13:30:40.722Z,20.20
2023-04-10T13:33:08.595Z,20.90
2023-04-10T13:35:35.499Z,20.50
2023-04-10T13:40:29.737Z,20.70
2023-04-10T13:42:56.645Z,20.60
2023-04-10T13:50:18.467Z,20.20
2023-04-10T13:52:45.484Z,19.40
2023-04-10T13:55:12.605Z,18.80
2023-04-10T13:57:39.677Z,18.50
2023-04-10T14:00:07.598Z,18.30
2023-04-10T14:02:34.736Z,18.70
2023-04-10T14:12:23.627Z,20.60
2023-04-10T14:14:51.020Z,20.60
2023-04-10T14:17:17.887Z,20.60
2023-04-10T14:19:46.515Z,20.40
2023-04-10T14:22:13.468Z,19.90
2023-04-10T14:24:40.368Z,19.10
2023-04-10T14:27:07.251Z,18.20
2023-04-10T14:29:38.801Z,17.90
2023-04-10T14:32:09.709Z,17.50
2023-04-10T14:34:36.673Z,17.10
2023-04-10T14:37:03.585Z,16.80
2023-04-10T14:39:31.499Z,16.90
2023-04-10T14:41:58.393Z,17.20
2023-04-10T14:44:25.439Z,17.90
2023-04-10T14:46:52.312Z,18.10
2023-04-10T14:49:19.256Z,18.50
2023-04-10T14:51:48.360Z,18.70
2023-04-10T14:54:16.988Z,18.20
2023-04-10T14:56:44.142Z,17.80
2023-04-10T14:59:11.648Z,17.90
2023-04-10T15:01:38.626Z,18.20
2023-04-10T15:04:05.780Z,18.20
2023-04-10T15:06:36.246Z,18.00
2023-04-10T15:09:03.406Z,17.30
2023-04-10T15:11:30.402Z,16.70
2023-04-10T15:13:59.158Z,16.80
2023-04-10T15:16:26.263Z,16.50
2023-04-10T15:18:53.293Z,16.40
2023-04-10T15:21:20.178Z,16.60
2023-04-10T15:23:47.032Z,17.20
2023-04-10T15:26:15.549Z,17.20
2023-04-10T15:28:43.322Z,17.30
2023-04-10T15:31:11.125Z,17.40
2023-04-10T15:33:39.822Z,17.40
2023-04-10T15:36:08.031Z,17.50
2023-04-10T15:38:35.830Z,17.70
2023-04-10T15:41:09.182Z,17.80
2023-04-10T15:43:36.686Z,18.10
2023-04-10T15:46:04.572Z,18.10
2023-04-10T15:48:31.577Z,18.00
2023-04-10T15:50:59.880Z,17.70
2023-04-10T15:53:26.778Z,17.40
2023-04-10T15:55:53.690Z,17.00
2023-04-10T15:58:20.626Z,16.50
2023-04-10T16:00:47.484Z,16.00
2023-04-10T16:03:14.740Z,15.90
2023-04-10T16:05:41.701Z,15.40
2023-04-10T16:08:08.535Z,15.40
2023-04-10T16:10:35.782Z,15.20
2023-04-10T16:13:05.098Z,14.90
2023-04-10T16:15:35.512Z,14.80
2023-04-10T16:18:06.648Z,15.10
2023-04-10T16:20:34.438Z,15.00
2023-04-10T16:23:01.845Z,15.20
2023-04-10T16:25:28.862Z,15.10
2023-04-10T16:27:55.855Z,15.00
2023-04-10T16:30:22.822Z,14.90
2023-04-10T16:32:49.772Z,15.10
2023-04-10T16:35:18.972Z,15.10
2023-04-10T16:37:46.562Z,15.20
2023-04-10T16:40:13.804Z,14.70
2023-04-10T16:42:40.907Z,14.90
2023-04-10T16:45:08.953Z,14.40
2023-04-10T16:47:36.028Z,14.30
2023-04-10T16:50:03.039Z,14.30
2023-04-10T16:52:30.169Z,14.20
2023-04-10T16:54:57.028Z,14.30
2023-04-10T16:57:23.816Z,14.20
2023-04-10T17:02:18.176Z,13.90
2023-04-10T17:04:45.067Z,14.00
2023-04-10T17:07:11.981Z,14.00
2023-04-10T17:09:38.785Z,13.90
2023-04-10T17:12:05.709Z,14.00
2023-04-10T17:14:32.724Z,13.90
2023-04-10T17:16:59.685Z,13.90
2023-04-10T17:19:26.630Z,13.60
2023-04-10T17:21:54.551Z,13.70
2023-04-10T17:24:21.434Z,13.50
2023-04-10T17:26:49.164Z,13.50
2023-04-10T17:29:16.651Z,13.60
2023-04-10T17:31:43.566Z,13.50
2023-04-10T17:34:10.434Z,13.50
2023-04-10T17:36:37.288Z,13.60
2023-04-10T17:39:04.212Z,13.60
2023-04-10T17:41:31.075Z,13.70
2023-04-10T17:43:58.131Z,13.40
2023-04-10T17:46:24.969Z,13.40
2023-04-10T17:48:52.063Z,13.50
2023-04-10T17:51:19.024Z,13.40
2023-04-10T17:53:46.791Z,13.60
2023-04-10T17:56:20.341Z,13.50
2023-04-10T17:58:47.470Z,13.40
2023-04-10T18:01:27.559Z,13.40
2023-04-10T18:03:54.611Z,13.30
2023-04-10T18:06:21.591Z,13.30
2023-04-10T18:08:49.221Z,13.10
2023-04-10T18:11:16.212Z,12.90
2023-04-10T18:13:43.106Z,12.80
2023-04-10T18:16:11.628Z,12.80
2023-04-10T18:18:39.316Z,12.80
2023-04-10T18:21:07.292Z,12.80
2023-04-10T18:23:34.292Z,12.90
2023-04-10T18:26:01.197Z,12.90
2023-04-10T18:28:28.037Z,12.70
2023-04-10T18:30:56.813Z,12.70
2023-04-10T18:33:25.065Z,12.80
2023-04-10T18:35:59.729Z,12.80
2023-04-10T18:38:27.131Z,12.80
2023-04-10T18:40:57.864Z,12.80
2023-04-10T18:43:25.835Z,12.80
2023-04-10T18:45:53.109Z,12.70
2023-04-10T18:48:20.128Z,12.50
2023-04-10T18:50:46.982Z,12.40
2023-04-10T18:53:14.087Z,12.20
2023-04-10T18:55:40.949Z,12.40
2023-04-10T18:58:07.883Z,12.50
2023-04-10T19:00:34.700Z,12.50
2023-04-10T19:03:01.716Z,12.60
2023-04-10T19:05:32.925Z,12.60
2023-04-10T19:08:04.146Z,12.60
2023-04-10T19:10:32.477Z,12.60
2023-04-10T19:12:59.386Z,12.60
2023-04-10T19:15:26.219Z,12.60
2023-04-10T19:17:54.304Z,12.50
2023-04-10T19:20:50.461Z,12.50
2023-04-10T19:23:09.533Z,12.50
2023-04-10T19:25:36.429Z,13.20
2023-04-10T19:28:04.024Z,12.30
2023-04-10T19:30:31.154Z,12.10
2023-04-10T19:32:58.102Z,12.00
2023-04-10T19:35:25.226Z,12.00
2023-04-10T19:37:52.222Z,11.90
2023-04-10T19:40:19.484Z,11.80
2023-04-10T19:42:46.407Z,11.70
2023-04-10T19:45:13.344Z,11.70
2023-04-10T19:47:40.400Z,11.70
2023-04-10T19:50:08.081Z,11.50
2023-04-10T19:52:35.035Z,11.40
2023-04-10T19:55:02.237Z,11.40
2023-04-10T19:57:29.103Z,11.50
2023-04-10T19:59:56.495Z,11.40
2023-04-10T20:02:23.566Z,11.40
2023-04-10T20:04:50.667Z,11.50
2023-04-10T20:07:17.988Z,11.40
2023-04-10T20:09:45.003Z,11.40
2023-04-10T20:12:11.913Z,11.40
2023-04-10T20:14:39.000Z,11.30
2023-04-10T20:17:05.982Z,11.20
2023-04-10T20:19:32.804Z,11.20
2023-04-10T20:22:02.073Z,13.30
2023-04-10T20:24:29.354Z,11.30
2023-04-10T20:26:57.751Z,11.30
2023-04-10T20:29:24.654Z,11.20
2023-04-10T20:31:51.553Z,11.20
2023-04-10T20:34:18.431Z,11.00
2023-04-10T20:36:48.041Z,10.90
2023-04-10T20:39:14.862Z,10.80
2023-04-10T20:41:41.759Z,11.10
2023-04-10T20:44:08.695Z,11.10
2023-04-10T20:46:35.557Z,11.00
2023-04-10T20:49:03.002Z,11.00
2023-04-10T20:51:29.892Z,10.80
2023-04-10T20:53:56.809Z,10.90
2023-04-10T20:56:32.813Z,10.90
2023-04-10T20:59:03.642Z,10.90
2023-04-10T21:01:30.578Z,10.80
2023-04-10T21:03:58.704Z,10.80
2023-04-10T21:06:26.617Z,10.80
2023-04-10T21:08:53.698Z,10.80
2023-04-10T21:11:22.101Z,10.70
2023-04-10T21:13:49.702Z,10.50
2023-04-10T21:16:16.582Z,10.60
2023-04-10T21:18:43.466Z,10.50
2023-04-10T21:21:10.705Z,10.50
2023-04-10T21:23:37.520Z,10.60
2023-04-10T21:26:04.330Z,10.60
2023-04-10T21:28:31.278Z,10.60
2023-04-10T21:30:58.094Z,10.60
2023-04-10T21:35:52.541Z,10.40
2023-04-10T21:38:19.523Z,10.40
2023-04-10T21:40:54.074Z,10.40
2023-04-10T21:43:21.815Z,10.50
2023-04-10T21:45:49.005Z,10.50
2023-04-10T21:48:16.145Z,10.50
2023-04-10T21:50:43.109Z,10.40
2023-04-10T21:53:10.016Z,10.40
2023-04-10T21:55:37.023Z,10.40
2023-04-10T21:58:04.193Z,10.40
2023-04-10T22:00:31.095Z,10.40
2023-04-10T22:02:58.110Z,10.50
2023-04-10T22:05:25.377Z,10.50
2023-04-10T22:07:52.368Z,10.50
2023-04-10T22:10:19.489Z,10.30
2023-04-10T22:12:48.411Z,10.30
2023-04-10T22:15:16.110Z,10.40
2023-04-10T22:17:43.313Z,10.40
2023-04-10T22:20:10.816Z,10.50
2023-04-10T22:22:37.685Z,10.40
2023-04-10T22:25:05.028Z,10.30
2023-04-10T22:27:33.187Z,10.20
2023-04-10T22:30:03.817Z,9.90
2023-04-10T22:32:31.987Z,9.80
2023-04-10T22:34:59.732Z,9.70
2023-04-10T22:37:27.221Z,9.80
2023-04-10T22:39:56.300Z,9.70
2023-04-10T22:42:23.766Z,9.60
2023-04-10T22:44:50.771Z,9.60
2023-04-10T22:47:18.654Z,9.70
2023-04-10T22:49:45.751Z,9.70
2023-04-10T22:52:13.290Z,9.60
2023-04-10T22:54:40.164Z,9.50
2023-04-10T22:57:07.702Z,9.60
2023-04-10T22:59:38.160Z,9.80
2023-04-10T23:02:05.357Z,9.90
2023-04-10T23:04:32.494Z,9.80
2023-04-10T23:06:59.538Z,9.80
2023-04-10T23:09:26.517Z,9.90
2023-04-10T23:11:53.381Z,9.90
2023-04-10T23:14:20.622Z,9.80
2023-04-10T23:16:47.872Z,9.80
2023-04-10T23:19:14.720Z,9.80
2023-04-10T23:21:41.749Z,9.80
2023-04-10T23:24:08.597Z,9.80
2023-04-10T23:26:35.408Z,9.80
2023-04-10T23:29:02.293Z,9.70
2023-04-10T23:31:29.521Z,9.60
2023-04-10T23:33:56.338Z,9.50
2023-04-10T23:36:23.123Z,9.50
2023-04-10T23:41:17.432Z,9.60
2023-04-10T23:43:44.818Z,9.60
2023-04-10T23:46:11.759Z,9.60
2023-04-10T23:48:38.617Z,9.50
2023-04-10T23:51:06.647Z,9.30
2023-04-10T23:53:33.972Z,9.40
2023-04-10T23:56:01.160Z,9.50
2023-04-10T23:58:28.055Z,9.50
